sensor_id;sensor_type;location;lat;lon;timestamp;temperature;humidity
10296;DHT22;5193;51.032;6.356;2023-01-23T00:00:56;1.20;99.90
10296;DHT22;5193;51.032;6.356;2023-01-23T00:03:22;1.20;99.90
10296;DHT22;5193;51.032;6.356;2023-01-23T00:06:02;1.20;99.90
10296;DHT22;5193;51.032;6.356;2023-01-23T00:08:28;1.30;99.90
10296;DHT22;5193;51.032;6.356;2023-01-23T00:10:54;1.20;99.90
10296;DHT22;5193;51.032;6.356;2023-01-23T00:13:20;1.30;99.90
10296;DHT22;5193;51.032;6.356;2023-01-23T00:15:47;1.20;99.90
10296;DHT22;5193;51.032;6.356;2023-01-23T00:18:12;1.30;99.90
10296;DHT22;5193;51.032;6.356;2023-01-23T00:20:39;1.30;99.90
10296;DHT22;5193;51.032;6.356;2023-01-23T00:23:05;1.20;99.90
10296;DHT22;5193;51.032;6.356;2023-01-23T00:25:33;1.20;99.90
10296;DHT22;5193;51.032;6.356;2023-01-23T00:27:59;1.20;99.90
10296;DHT22;5193;51.032;6.356;2023-01-23T00:30:24;1.20;99.90
10296;DHT22;5193;51.032;6.356;2023-01-23T00:32:50;1.30;99.90
10296;DHT22;5193;51.032;6.356;2023-01-23T00:35:16;1.30;99.90
10296;DHT22;5193;51.032;6.356;2023-01-23T00:37:41;1.30;99.90
10296;DHT22;5193;51.032;6.356;2023-01-23T00:40:07;1.20;99.90
10296;DHT22;5193;51.032;6.356;2023-01-23T00:42:33;1.20;99.90
10296;DHT22;5193;51.032;6.356;2023-01-23T00:44:59;1.30;99.90
10296;DHT22;5193;51.032;6.356;2023-01-23T00:47:24;1.30;99.90
10296;DHT22;5193;51.032;6.356;2023-01-23T00:49:50;1.20;99.90
10296;DHT22;5193;51.032;6.356;2023-01-23T00:52:18;1.30;99.90
10296;DHT22;5193;51.032;6.356;2023-01-23T00:54:44;1.30;99.90
10296;DHT22;5193;51.032;6.356;2023-01-23T00:57:09;1.30;99.90
10296;DHT22;5193;51.032;6.356;2023-01-23T00:59:35;1.30;99.90
10296;DHT22;5193;51.032;6.356;2023-01-23T01:02:01;1.30;99.90
10296;DHT22;5193;51.032;6.356;2023-01-23T01:04:26;1.30;99.90
10296;DHT22;5193;51.032;6.356;2023-01-23T01:06:52;1.20;99.90
10296;DHT22;5193;51.032;6.356;2023-01-23T01:09:17;1.30;99.90
10296;DHT22;5193;51.032;6.356;2023-01-23T01:11:43;1.30;99.90
10296;DHT22;5193;51.032;6.356;2023-01-23T01:14:08;1.20;99.90
10296;DHT22;5193;51.032;6.356;2023-01-23T01:16:34;1.30;99.90
10296;DHT22;5193;51.032;6.356;2023-01-23T01:19:00;1.30;99.90
10296;DHT22;5193;51.032;6.356;2023-01-23T01:21:26;1.20;99.90
10296;DHT22;5193;51.032;6.356;2023-01-23T01:23:51;1.30;99.90
10296;DHT22;5193;51.032;6.356;2023-01-23T01:26:17;1.30;99.90
10296;DHT22;5193;51.032;6.356;2023-01-23T01:28:43;1.30;99.90
10296;DHT22;5193;51.032;6.356;2023-01-23T01:31:14;1.30;99.90
10296;DHT22;5193;51.032;6.356;2023-01-23T01:33:40;1.30;99.90
10296;DHT22;5193;51.032;6.356;2023-01-23T01:36:09;1.30;99.90
10296;DHT22;5193;51.032;6.356;2023-01-23T01:38:35;1.30;99.90
10296;DHT22;5193;51.032;6.356;2023-01-23T01:41:01;1.40;99.90
10296;DHT22;5193;51.032;6.356;2023-01-23T01:43:27;1.30;99.90
10296;DHT22;5193;51.032;6.356;2023-01-23T01:46:21;1.40;99.90
10296;DHT22;5193;51.032;6.356;2023-01-23T01:49:07;1.40;99.90
10296;DHT22;5193;51.032;6.356;2023-01-23T01:57:10;1.40;99.90
10296;DHT22;5193;51.032;6.356;2023-01-23T02:05:13;1.40;99.90
10296;DHT22;5193;51.032;6.356;2023-01-23T02:10:22;1.40;99.90
10296;DHT22;5193;51.032;6.356;2023-01-23T02:12:51;1.40;99.90
10296;DHT22;5193;51.032;6.356;2023-01-23T02:15:19;1.40;99.90
10296;DHT22;5193;51.032;6.356;2023-01-23T02:17:46;1.40;99.90
10296;DHT22;5193;51.032;6.356;2023-01-23T02:20:24;1.40;99.90
10296;DHT22;5193;51.032;6.356;2023-01-23T02:27:51;1.40;99.90
10296;DHT22;5193;51.032;6.356;2023-01-23T02:30:19;1.40;99.90
10296;DHT22;5193;51.032;6.356;2023-01-23T02:32:45;1.40;99.90
10296;DHT22;5193;51.032;6.356;2023-01-23T02:35:18;1.40;99.90
10296;DHT22;5193;51.032;6.356;2023-01-23T02:37:46;1.40;99.90
10296;DHT22;5193;51.032;6.356;2023-01-23T02:40:13;1.30;99.90
10296;DHT22;5193;51.032;6.356;2023-01-23T02:42:40;1.40;99.90
10296;DHT22;5193;51.032;6.356;2023-01-23T02:45:08;1.40;99.90
10296;DHT22;5193;51.032;6.356;2023-01-23T02:47:33;1.40;99.90
10296;DHT22;5193;51.032;6.356;2023-01-23T02:49:59;1.40;99.90
10296;DHT22;5193;51.032;6.356;2023-01-23T02:52:25;1.40;99.90
10296;DHT22;5193;51.032;6.356;2023-01-23T02:54:50;1.40;99.90
10296;DHT22;5193;51.032;6.356;2023-01-23T02:57:16;1.50;99.90
10296;DHT22;5193;51.032;6.356;2023-01-23T02:59:41;1.50;99.90
10296;DHT22;5193;51.032;6.356;2023-01-23T03:02:25;1.50;99.90
10296;DHT22;5193;51.032;6.356;2023-01-23T03:04:52;1.50;99.90
10296;DHT22;5193;51.032;6.356;2023-01-23T03:07:17;1.50;99.90
10296;DHT22;5193;51.032;6.356;2023-01-23T03:09:43;1.50;99.90
10296;DHT22;5193;51.032;6.356;2023-01-23T03:12:12;1.60;99.90
10296;DHT22;5193;51.032;6.356;2023-01-23T03:14:39;1.60;99.90
10296;DHT22;5193;51.032;6.356;2023-01-23T03:17:05;1.50;99.90
10296;DHT22;5193;51.032;6.356;2023-01-23T03:19:31;1.50;99.90
10296;DHT22;5193;51.032;6.356;2023-01-23T03:21:57;1.60;99.90
10296;DHT22;5193;51.032;6.356;2023-01-23T03:24:22;1.60;99.90
10296;DHT22;5193;51.032;6.356;2023-01-23T03:26:49;1.50;99.90
10296;DHT22;5193;51.032;6.356;2023-01-23T03:29:17;1.50;99.90
10296;DHT22;5193;51.032;6.356;2023-01-23T03:32:02;1.50;99.90
10296;DHT22;5193;51.032;6.356;2023-01-23T03:34:28;1.50;99.90
10296;DHT22;5193;51.032;6.356;2023-01-23T03:36:54;1.50;99.90
10296;DHT22;5193;51.032;6.356;2023-01-23T03:39:20;1.50;99.90
10296;DHT22;5193;51.032;6.356;2023-01-23T03:42:04;1.50;99.90
10296;DHT22;5193;51.032;6.356;2023-01-23T03:44:29;1.50;99.90
10296;DHT22;5193;51.032;6.356;2023-01-23T03:46:55;1.50;99.90
10296;DHT22;5193;51.032;6.356;2023-01-23T03:49:21;1.50;99.90
10296;DHT22;5193;51.032;6.356;2023-01-23T03:51:46;1.50;99.90
10296;DHT22;5193;51.032;6.356;2023-01-23T03:54:12;1.40;99.90
10296;DHT22;5193;51.032;6.356;2023-01-23T03:56:39;1.40;99.90
10296;DHT22;5193;51.032;6.356;2023-01-23T03:59:05;1.40;99.90
10296;DHT22;5193;51.032;6.356;2023-01-23T04:01:31;1.40;99.90
10296;DHT22;5193;51.032;6.356;2023-01-23T04:03:56;1.40;99.90
10296;DHT22;5193;51.032;6.356;2023-01-23T04:06:22;1.40;99.90
10296;DHT22;5193;51.032;6.356;2023-01-23T04:08:47;1.40;99.90
10296;DHT22;5193;51.032;6.356;2023-01-23T04:11:13;1.40;99.90
10296;DHT22;5193;51.032;6.356;2023-01-23T04:13:39;1.40;99.90
10296;DHT22;5193;51.032;6.356;2023-01-23T04:16:05;1.40;99.90
10296;DHT22;5193;51.032;6.356;2023-01-23T04:18:31;1.40;99.90
10296;DHT22;5193;51.032;6.356;2023-01-23T04:20:57;1.40;99.90
10296;DHT22;5193;51.032;6.356;2023-01-23T04:23:23;1.40;99.90
10296;DHT22;5193;51.032;6.356;2023-01-23T04:25:50;1.50;99.90
10296;DHT22;5193;51.032;6.356;2023-01-23T04:28:16;1.40;99.90
10296;DHT22;5193;51.032;6.356;2023-01-23T04:30:42;1.40;99.90
10296;DHT22;5193;51.032;6.356;2023-01-23T04:33:08;1.40;99.90
10296;DHT22;5193;51.032;6.356;2023-01-23T04:35:33;1.50;99.90
10296;DHT22;5193;51.032;6.356;2023-01-23T04:37:59;1.50;99.90
10296;DHT22;5193;51.032;6.356;2023-01-23T04:40:25;1.50;99.90
10296;DHT22;5193;51.032;6.356;2023-01-23T04:42:51;1.40;99.90
10296;DHT22;5193;51.032;6.356;2023-01-23T04:45:17;1.50;99.90
10296;DHT22;5193;51.032;6.356;2023-01-23T04:47:43;1.50;99.90
10296;DHT22;5193;51.032;6.356;2023-01-23T04:50:08;1.50;99.90
10296;DHT22;5193;51.032;6.356;2023-01-23T04:52:35;1.50;99.90
10296;DHT22;5193;51.032;6.356;2023-01-23T04:55:01;1.50;99.90
10296;DHT22;5193;51.032;6.356;2023-01-23T04:57:27;1.50;99.90
10296;DHT22;5193;51.032;6.356;2023-01-23T04:59:52;1.50;99.90
10296;DHT22;5193;51.032;6.356;2023-01-23T05:02:18;1.50;99.90
10296;DHT22;5193;51.032;6.356;2023-01-23T05:04:44;1.50;99.90
10296;DHT22;5193;51.032;6.356;2023-01-23T05:07:10;1.50;99.90
10296;DHT22;5193;51.032;6.356;2023-01-23T05:09:37;1.50;99.90
10296;DHT22;5193;51.032;6.356;2023-01-23T05:12:03;1.40;99.90
10296;DHT22;5193;51.032;6.356;2023-01-23T05:14:29;1.50;99.90
10296;DHT22;5193;51.032;6.356;2023-01-23T05:16:54;1.50;99.90
10296;DHT22;5193;51.032;6.356;2023-01-23T05:21:49;1.40;99.90
10296;DHT22;5193;51.032;6.356;2023-01-23T05:24:15;1.40;99.90
10296;DHT22;5193;51.032;6.356;2023-01-23T05:26:41;1.40;99.90
10296;DHT22;5193;51.032;6.356;2023-01-23T05:29:07;1.40;99.90
10296;DHT22;5193;51.032;6.356;2023-01-23T05:31:33;1.40;99.90
10296;DHT22;5193;51.032;6.356;2023-01-23T05:33:59;1.40;99.90
10296;DHT22;5193;51.032;6.356;2023-01-23T05:36:25;1.40;99.90
10296;DHT22;5193;51.032;6.356;2023-01-23T05:38:52;1.40;99.90
10296;DHT22;5193;51.032;6.356;2023-01-23T05:41:19;1.40;99.90
10296;DHT22;5193;51.032;6.356;2023-01-23T05:43:44;1.40;99.90
10296;DHT22;5193;51.032;6.356;2023-01-23T05:46:10;1.40;99.90
10296;DHT22;5193;51.032;6.356;2023-01-23T05:48:39;1.40;99.90
10296;DHT22;5193;51.032;6.356;2023-01-23T05:51:09;1.40;99.90
10296;DHT22;5193;51.032;6.356;2023-01-23T05:53:37;1.40;99.90
10296;DHT22;5193;51.032;6.356;2023-01-23T05:56:06;1.40;99.90
10296;DHT22;5193;51.032;6.356;2023-01-23T05:58:33;1.30;99.90
10296;DHT22;5193;51.032;6.356;2023-01-23T06:01:01;1.30;99.90
10296;DHT22;5193;51.032;6.356;2023-01-23T06:03:28;1.30;99.90
10296;DHT22;5193;51.032;6.356;2023-01-23T06:05:54;1.30;99.90
10296;DHT22;5193;51.032;6.356;2023-01-23T06:08:20;1.30;99.90
10296;DHT22;5193;51.032;6.356;2023-01-23T06:10:46;1.30;99.90
10296;DHT22;5193;51.032;6.356;2023-01-23T06:13:13;1.20;99.90
10296;DHT22;5193;51.032;6.356;2023-01-23T06:15:40;1.20;99.90
10296;DHT22;5193;51.032;6.356;2023-01-23T06:18:06;1.20;99.90
10296;DHT22;5193;51.032;6.356;2023-01-23T06:20:32;1.20;99.90
10296;DHT22;5193;51.032;6.356;2023-01-23T06:22:58;1.20;99.90
10296;DHT22;5193;51.032;6.356;2023-01-23T06:25:24;1.10;99.90
10296;DHT22;5193;51.032;6.356;2023-01-23T06:27:50;1.20;99.90
10296;DHT22;5193;51.032;6.356;2023-01-23T06:30:16;1.20;99.90
10296;DHT22;5193;51.032;6.356;2023-01-23T06:32:41;1.20;99.90
10296;DHT22;5193;51.032;6.356;2023-01-23T06:35:07;1.20;99.90
10296;DHT22;5193;51.032;6.356;2023-01-23T06:37:33;1.20;99.90
10296;DHT22;5193;51.032;6.356;2023-01-23T06:39:58;1.20;99.90
10296;DHT22;5193;51.032;6.356;2023-01-23T06:42:24;1.20;99.90
10296;DHT22;5193;51.032;6.356;2023-01-23T06:44:50;1.20;99.90
10296;DHT22;5193;51.032;6.356;2023-01-23T06:47:15;1.20;99.90
10296;DHT22;5193;51.032;6.356;2023-01-23T06:49:41;1.20;99.90
10296;DHT22;5193;51.032;6.356;2023-01-23T06:52:06;1.20;99.90
10296;DHT22;5193;51.032;6.356;2023-01-23T06:54:32;1.20;99.90
10296;DHT22;5193;51.032;6.356;2023-01-23T06:56:58;1.20;99.90
10296;DHT22;5193;51.032;6.356;2023-01-23T06:59:23;1.20;99.90
10296;DHT22;5193;51.032;6.356;2023-01-23T07:01:49;1.20;99.90
10296;DHT22;5193;51.032;6.356;2023-01-23T07:04:15;1.20;99.90
10296;DHT22;5193;51.032;6.356;2023-01-23T07:06:40;1.20;99.90
10296;DHT22;5193;51.032;6.356;2023-01-23T07:09:06;1.20;99.90
10296;DHT22;5193;51.032;6.356;2023-01-23T07:11:32;1.10;99.90
10296;DHT22;5193;51.032;6.356;2023-01-23T07:13:57;1.20;99.90
10296;DHT22;5193;51.032;6.356;2023-01-23T07:16:23;1.10;99.90
10296;DHT22;5193;51.032;6.356;2023-01-23T07:18:49;1.10;99.90
10296;DHT22;5193;51.032;6.356;2023-01-23T07:21:15;1.10;99.90
10296;DHT22;5193;51.032;6.356;2023-01-23T07:23:40;1.10;99.90
10296;DHT22;5193;51.032;6.356;2023-01-23T07:26:06;1.10;99.90
10296;DHT22;5193;51.032;6.356;2023-01-23T07:28:34;1.20;99.90
10296;DHT22;5193;51.032;6.356;2023-01-23T07:31:01;1.20;99.90
10296;DHT22;5193;51.032;6.356;2023-01-23T07:33:27;1.20;99.90
10296;DHT22;5193;51.032;6.356;2023-01-23T07:35:53;1.20;99.90
10296;DHT22;5193;51.032;6.356;2023-01-23T07:38:19;1.20;99.90
10296;DHT22;5193;51.032;6.356;2023-01-23T07:40:44;1.30;99.90
10296;DHT22;5193;51.032;6.356;2023-01-23T07:43:11;1.30;99.90
10296;DHT22;5193;51.032;6.356;2023-01-23T07:45:36;1.30;99.90
10296;DHT22;5193;51.032;6.356;2023-01-23T07:48:02;1.30;99.90
10296;DHT22;5193;51.032;6.356;2023-01-23T07:50:28;1.30;99.90
10296;DHT22;5193;51.032;6.356;2023-01-23T07:52:54;1.30;99.90
10296;DHT22;5193;51.032;6.356;2023-01-23T07:55:20;1.30;99.90
10296;DHT22;5193;51.032;6.356;2023-01-23T07:57:45;1.40;99.90
10296;DHT22;5193;51.032;6.356;2023-01-23T08:00:11;1.40;99.90
10296;DHT22;5193;51.032;6.356;2023-01-23T08:02:37;1.40;99.90
10296;DHT22;5193;51.032;6.356;2023-01-23T08:05:03;1.40;99.90
10296;DHT22;5193;51.032;6.356;2023-01-23T08:07:29;1.40;99.90
10296;DHT22;5193;51.032;6.356;2023-01-23T08:09:54;1.40;99.90
10296;DHT22;5193;51.032;6.356;2023-01-23T08:12:20;1.40;99.90
10296;DHT22;5193;51.032;6.356;2023-01-23T08:14:46;1.40;99.90
10296;DHT22;5193;51.032;6.356;2023-01-23T08:17:12;1.50;99.90
10296;DHT22;5193;51.032;6.356;2023-01-23T08:19:37;1.50;99.90
10296;DHT22;5193;51.032;6.356;2023-01-23T08:22:03;1.50;99.90
10296;DHT22;5193;51.032;6.356;2023-01-23T08:24:28;1.50;99.90
10296;DHT22;5193;51.032;6.356;2023-01-23T08:26:54;1.50;99.90
10296;DHT22;5193;51.032;6.356;2023-01-23T08:29:19;1.50;99.90
10296;DHT22;5193;51.032;6.356;2023-01-23T08:31:45;1.60;99.90
10296;DHT22;5193;51.032;6.356;2023-01-23T08:34:11;1.60;99.90
10296;DHT22;5193;51.032;6.356;2023-01-23T08:36:36;1.60;99.90
10296;DHT22;5193;51.032;6.356;2023-01-23T08:39:03;1.60;99.90
10296;DHT22;5193;51.032;6.356;2023-01-23T08:41:28;1.70;99.90
10296;DHT22;5193;51.032;6.356;2023-01-23T08:43:54;1.70;99.90
10296;DHT22;5193;51.032;6.356;2023-01-23T08:46:21;1.70;99.90
10296;DHT22;5193;51.032;6.356;2023-01-23T08:48:47;1.70;99.90
10296;DHT22;5193;51.032;6.356;2023-01-23T08:51:13;1.70;99.90
10296;DHT22;5193;51.032;6.356;2023-01-23T08:53:39;1.70;99.90
10296;DHT22;5193;51.032;6.356;2023-01-23T08:56:09;1.80;99.90
10296;DHT22;5193;51.032;6.356;2023-01-23T08:58:37;1.80;99.90
10296;DHT22;5193;51.032;6.356;2023-01-23T09:01:03;1.80;99.90
10296;DHT22;5193;51.032;6.356;2023-01-23T09:03:29;1.80;99.90
10296;DHT22;5193;51.032;6.356;2023-01-23T09:05:54;1.80;99.90
10296;DHT22;5193;51.032;6.356;2023-01-23T09:08:24;1.80;99.90
10296;DHT22;5193;51.032;6.356;2023-01-23T09:10:49;1.80;99.90
10296;DHT22;5193;51.032;6.356;2023-01-23T09:13:16;1.80;99.90
10296;DHT22;5193;51.032;6.356;2023-01-23T09:15:44;1.90;99.90
10296;DHT22;5193;51.032;6.356;2023-01-23T09:18:10;1.90;99.90
10296;DHT22;5193;51.032;6.356;2023-01-23T09:20:37;1.90;99.90
10296;DHT22;5193;51.032;6.356;2023-01-23T09:23:02;1.90;99.90
10296;DHT22;5193;51.032;6.356;2023-01-23T09:25:28;2.00;99.90
10296;DHT22;5193;51.032;6.356;2023-01-23T09:27:55;2.00;99.90
10296;DHT22;5193;51.032;6.356;2023-01-23T09:30:21;2.00;99.90
10296;DHT22;5193;51.032;6.356;2023-01-23T09:32:47;2.00;99.90
10296;DHT22;5193;51.032;6.356;2023-01-23T09:35:12;2.10;99.90
10296;DHT22;5193;51.032;6.356;2023-01-23T09:37:38;2.10;99.90
10296;DHT22;5193;51.032;6.356;2023-01-23T09:40:23;2.10;99.90
10296;DHT22;5193;51.032;6.356;2023-01-23T09:42:50;2.10;99.90
10296;DHT22;5193;51.032;6.356;2023-01-23T09:45:19;2.20;99.90
10296;DHT22;5193;51.032;6.356;2023-01-23T09:48:20;2.20;99.90
10296;DHT22;5193;51.032;6.356;2023-01-23T09:50:54;2.20;99.90
10296;DHT22;5193;51.032;6.356;2023-01-23T09:53:24;2.30;99.90
10296;DHT22;5193;51.032;6.356;2023-01-23T09:56:05;2.30;99.90
10296;DHT22;5193;51.032;6.356;2023-01-23T09:58:47;2.40;99.90
10296;DHT22;5193;51.032;6.356;2023-01-23T10:01:15;2.40;99.90
10296;DHT22;5193;51.032;6.356;2023-01-23T10:03:41;2.40;99.90
10296;DHT22;5193;51.032;6.356;2023-01-23T10:06:27;2.40;99.90
10296;DHT22;5193;51.032;6.356;2023-01-23T10:09:05;2.40;99.90
10296;DHT22;5193;51.032;6.356;2023-01-23T10:11:47;2.50;99.90
10296;DHT22;5193;51.032;6.356;2023-01-23T10:14:30;2.50;99.90
10296;DHT22;5193;51.032;6.356;2023-01-23T10:25:32;2.70;99.90
10296;DHT22;5193;51.032;6.356;2023-01-23T10:30:41;2.70;99.90
10296;DHT22;5193;51.032;6.356;2023-01-23T10:33:16;2.70;99.90
10296;DHT22;5193;51.032;6.356;2023-01-23T10:35:55;2.70;99.90
10296;DHT22;5193;51.032;6.356;2023-01-23T10:41:12;2.80;99.90
10296;DHT22;5193;51.032;6.356;2023-01-23T10:43:45;2.80;99.90
10296;DHT22;5193;51.032;6.356;2023-01-23T10:46:14;2.80;99.90
10296;DHT22;5193;51.032;6.356;2023-01-23T10:54:21;2.90;99.90
10296;DHT22;5193;51.032;6.356;2023-01-23T11:04:28;2.90;99.90
10296;DHT22;5193;51.032;6.356;2023-01-23T11:07:05;2.90;99.90
10296;DHT22;5193;51.032;6.356;2023-01-23T11:09:31;2.90;99.90
10296;DHT22;5193;51.032;6.356;2023-01-23T11:12:04;2.90;99.90
10296;DHT22;5193;51.032;6.356;2023-01-23T11:14:31;2.90;99.90
10296;DHT22;5193;51.032;6.356;2023-01-23T11:17:23;2.90;99.90
10296;DHT22;5193;51.032;6.356;2023-01-23T11:19:51;2.90;99.90
10296;DHT22;5193;51.032;6.356;2023-01-23T11:24:52;3.00;99.90
10296;DHT22;5193;51.032;6.356;2023-01-23T11:27:21;3.00;99.90
10296;DHT22;5193;51.032;6.356;2023-01-23T11:30:26;3.00;99.90
10296;DHT22;5193;51.032;6.356;2023-01-23T11:32:58;3.00;99.90
10296;DHT22;5193;51.032;6.356;2023-01-23T11:35:48;3.00;99.90
10296;DHT22;5193;51.032;6.356;2023-01-23T11:38:16;3.00;99.90
10296;DHT22;5193;51.032;6.356;2023-01-23T11:40:46;3.10;99.90
10296;DHT22;5193;51.032;6.356;2023-01-23T11:43:14;3.10;99.90
10296;DHT22;5193;51.032;6.356;2023-01-23T11:48:45;3.10;99.90
10296;DHT22;5193;51.032;6.356;2023-01-23T11:54:31;3.10;99.90
10296;DHT22;5193;51.032;6.356;2023-01-23T11:57:14;3.20;99.90
10296;DHT22;5193;51.032;6.356;2023-01-23T11:59:55;3.20;99.90
10296;DHT22;5193;51.032;6.356;2023-01-23T12:02:44;3.20;99.90
10296;DHT22;5193;51.032;6.356;2023-01-23T12:05:40;3.20;99.90
10296;DHT22;5193;51.032;6.356;2023-01-23T12:11:14;3.30;99.90
10296;DHT22;5193;51.032;6.356;2023-01-23T12:14:02;3.30;99.90
10296;DHT22;5193;51.032;6.356;2023-01-23T12:16:34;3.30;99.90
10296;DHT22;5193;51.032;6.356;2023-01-23T12:21:52;3.30;99.90
10296;DHT22;5193;51.032;6.356;2023-01-23T12:27:47;3.30;99.90
10296;DHT22;5193;51.032;6.356;2023-01-23T12:33:20;3.30;99.90
10296;DHT22;5193;51.032;6.356;2023-01-23T12:35:55;3.30;99.90
10296;DHT22;5193;51.032;6.356;2023-01-23T12:41:24;3.30;99.90
10296;DHT22;5193;51.032;6.356;2023-01-23T12:46:47;3.30;99.90
10296;DHT22;5193;51.032;6.356;2023-01-23T12:49:26;3.40;99.90
10296;DHT22;5193;51.032;6.356;2023-01-23T12:52:04;3.40;99.90
10296;DHT22;5193;51.032;6.356;2023-01-23T12:55:05;3.40;99.90
10296;DHT22;5193;51.032;6.356;2023-01-23T12:57:32;3.40;99.90
10296;DHT22;5193;51.032;6.356;2023-01-23T13:00:50;3.40;99.90
10296;DHT22;5193;51.032;6.356;2023-01-23T13:09:12;3.40;99.90
10296;DHT22;5193;51.032;6.356;2023-01-23T13:14:42;3.50;99.90
10296;DHT22;5193;51.032;6.356;2023-01-23T13:17:37;3.50;99.90
10296;DHT22;5193;51.032;6.356;2023-01-23T13:23:27;3.50;99.90
10296;DHT22;5193;51.032;6.356;2023-01-23T13:28:52;3.50;99.90
10296;DHT22;5193;51.032;6.356;2023-01-23T13:31:33;3.50;99.90
10296;DHT22;5193;51.032;6.356;2023-01-23T13:37:30;3.50;99.90
10296;DHT22;5193;51.032;6.356;2023-01-23T13:42:41;3.50;99.90
10296;DHT22;5193;51.032;6.356;2023-01-23T13:45:24;3.50;99.90
10296;DHT22;5193;51.032;6.356;2023-01-23T13:51:20;3.50;99.90
10296;DHT22;5193;51.032;6.356;2023-01-23T13:53:49;3.50;99.90
10296;DHT22;5193;51.032;6.356;2023-01-23T13:56:35;3.50;99.90
10296;DHT22;5193;51.032;6.356;2023-01-23T14:01:53;3.50;99.90
10296;DHT22;5193;51.032;6.356;2023-01-23T14:04:42;3.50;99.90
10296;DHT22;5193;51.032;6.356;2023-01-23T14:07:32;3.50;99.90
10296;DHT22;5193;51.032;6.356;2023-01-23T14:10:34;3.50;99.90
10296;DHT22;5193;51.032;6.356;2023-01-23T14:15:34;3.50;99.90
10296;DHT22;5193;51.032;6.356;2023-01-23T14:21:02;3.40;99.90
10296;DHT22;5193;51.032;6.356;2023-01-23T14:23:33;3.40;99.90
10296;DHT22;5193;51.032;6.356;2023-01-23T14:26:01;3.40;99.90
10296;DHT22;5193;51.032;6.356;2023-01-23T14:28:28;3.40;99.90
10296;DHT22;5193;51.032;6.356;2023-01-23T14:30:59;3.40;99.90
10296;DHT22;5193;51.032;6.356;2023-01-23T14:33:26;3.40;99.90
10296;DHT22;5193;51.032;6.356;2023-01-23T14:35:52;3.30;99.90
10296;DHT22;5193;51.032;6.356;2023-01-23T14:38:28;3.30;99.90
10296;DHT22;5193;51.032;6.356;2023-01-23T14:40:56;3.30;99.90
10296;DHT22;5193;51.032;6.356;2023-01-23T14:43:24;3.30;99.90
10296;DHT22;5193;51.032;6.356;2023-01-23T14:46:00;3.20;99.90
10296;DHT22;5193;51.032;6.356;2023-01-23T14:48:34;3.20;99.90
10296;DHT22;5193;51.032;6.356;2023-01-23T14:51:35;3.20;99.90
10296;DHT22;5193;51.032;6.356;2023-01-23T14:54:03;3.20;99.90
10296;DHT22;5193;51.032;6.356;2023-01-23T14:56:34;3.20;99.90
10296;DHT22;5193;51.032;6.356;2023-01-23T14:59:04;3.20;99.90
10296;DHT22;5193;51.032;6.356;2023-01-23T15:01:31;3.20;99.90
10296;DHT22;5193;51.032;6.356;2023-01-23T15:04:06;3.20;99.90
10296;DHT22;5193;51.032;6.356;2023-01-23T15:06:33;3.10;99.90
10296;DHT22;5193;51.032;6.356;2023-01-23T15:09:12;3.20;99.90
10296;DHT22;5193;51.032;6.356;2023-01-23T15:11:38;3.10;99.90
10296;DHT22;5193;51.032;6.356;2023-01-23T15:14:04;3.20;99.90
10296;DHT22;5193;51.032;6.356;2023-01-23T15:16:34;3.10;99.90
10296;DHT22;5193;51.032;6.356;2023-01-23T15:19:19;3.20;99.90
10296;DHT22;5193;51.032;6.356;2023-01-23T15:21:45;3.20;99.90
10296;DHT22;5193;51.032;6.356;2023-01-23T15:26:38;3.20;99.90
10296;DHT22;5193;51.032;6.356;2023-01-23T15:36:49;3.10;99.90
10296;DHT22;5193;51.032;6.356;2023-01-23T15:39:23;3.10;99.90
10296;DHT22;5193;51.032;6.356;2023-01-23T15:41:53;3.00;99.90
10296;DHT22;5193;51.032;6.356;2023-01-23T15:44:20;3.10;99.90
10296;DHT22;5193;51.032;6.356;2023-01-23T15:46:46;3.00;99.90
10296;DHT22;5193;51.032;6.356;2023-01-23T15:49:12;3.00;99.90
10296;DHT22;5193;51.032;6.356;2023-01-23T15:51:37;3.00;99.90
10296;DHT22;5193;51.032;6.356;2023-01-23T15:54:04;3.00;99.90
10296;DHT22;5193;51.032;6.356;2023-01-23T15:56:32;3.00;99.90
10296;DHT22;5193;51.032;6.356;2023-01-23T15:58:58;3.00;99.90
10296;DHT22;5193;51.032;6.356;2023-01-23T16:01:29;3.00;99.90
10296;DHT22;5193;51.032;6.356;2023-01-23T16:03:55;3.00;99.90
10296;DHT22;5193;51.032;6.356;2023-01-23T16:06:22;2.90;99.90
10296;DHT22;5193;51.032;6.356;2023-01-23T16:08:49;2.90;99.90
10296;DHT22;5193;51.032;6.356;2023-01-23T16:11:16;2.90;99.90
10296;DHT22;5193;51.032;6.356;2023-01-23T16:13:42;2.90;99.90
10296;DHT22;5193;51.032;6.356;2023-01-23T16:16:15;2.90;99.90
10296;DHT22;5193;51.032;6.356;2023-01-23T16:18:41;2.90;99.90
10296;DHT22;5193;51.032;6.356;2023-01-23T16:21:16;2.80;99.90
10296;DHT22;5193;51.032;6.356;2023-01-23T16:23:44;2.80;99.90
10296;DHT22;5193;51.032;6.356;2023-01-23T16:26:21;2.80;99.90
10296;DHT22;5193;51.032;6.356;2023-01-23T16:28:47;2.80;99.90
10296;DHT22;5193;51.032;6.356;2023-01-23T16:31:14;2.90;99.90
10296;DHT22;5193;51.032;6.356;2023-01-23T16:33:40;2.90;99.90
10296;DHT22;5193;51.032;6.356;2023-01-23T16:36:08;2.90;99.90
10296;DHT22;5193;51.032;6.356;2023-01-23T16:38:35;2.80;99.90
10296;DHT22;5193;51.032;6.356;2023-01-23T16:41:01;2.80;99.90
10296;DHT22;5193;51.032;6.356;2023-01-23T16:43:26;2.80;99.90
10296;DHT22;5193;51.032;6.356;2023-01-23T16:45:52;2.80;99.90
10296;DHT22;5193;51.032;6.356;2023-01-23T16:48:19;2.80;99.90
10296;DHT22;5193;51.032;6.356;2023-01-23T16:50:50;2.80;99.90
10296;DHT22;5193;51.032;6.356;2023-01-23T16:53:22;2.80;99.90
10296;DHT22;5193;51.032;6.356;2023-01-23T16:55:48;2.80;99.90
10296;DHT22;5193;51.032;6.356;2023-01-23T16:58:18;2.80;99.90
10296;DHT22;5193;51.032;6.356;2023-01-23T17:00:44;2.70;99.90
10296;DHT22;5193;51.032;6.356;2023-01-23T17:03:20;2.70;99.90
10296;DHT22;5193;51.032;6.356;2023-01-23T17:05:46;2.70;99.90
10296;DHT22;5193;51.032;6.356;2023-01-23T17:08:21;2.70;99.90
10296;DHT22;5193;51.032;6.356;2023-01-23T17:10:50;2.70;99.90
10296;DHT22;5193;51.032;6.356;2023-01-23T17:13:17;2.70;99.90
10296;DHT22;5193;51.032;6.356;2023-01-23T17:15:44;2.70;99.90
10296;DHT22;5193;51.032;6.356;2023-01-23T17:18:27;2.70;99.90
10296;DHT22;5193;51.032;6.356;2023-01-23T17:20:53;2.60;99.90
10296;DHT22;5193;51.032;6.356;2023-01-23T17:23:20;2.70;99.90
10296;DHT22;5193;51.032;6.356;2023-01-23T17:25:46;2.70;99.90
10296;DHT22;5193;51.032;6.356;2023-01-23T17:28:16;2.70;99.90
10296;DHT22;5193;51.032;6.356;2023-01-23T17:30:43;2.70;99.90
10296;DHT22;5193;51.032;6.356;2023-01-23T17:33:20;2.70;99.90
10296;DHT22;5193;51.032;6.356;2023-01-23T17:35:47;2.70;99.90
10296;DHT22;5193;51.032;6.356;2023-01-23T17:38:25;2.70;99.90
10296;DHT22;5193;51.032;6.356;2023-01-23T17:40:51;2.70;99.90
10296;DHT22;5193;51.032;6.356;2023-01-23T17:43:19;2.60;99.90
10296;DHT22;5193;51.032;6.356;2023-01-23T17:45:47;2.60;99.90
10296;DHT22;5193;51.032;6.356;2023-01-23T17:48:17;2.60;99.90
10296;DHT22;5193;51.032;6.356;2023-01-23T17:50:44;2.60;99.90
10296;DHT22;5193;51.032;6.356;2023-01-23T17:53:14;2.60;99.90
10296;DHT22;5193;51.032;6.356;2023-01-23T17:55:41;2.60;99.90
10296;DHT22;5193;51.032;6.356;2023-01-23T17:58:11;2.60;99.90
10296;DHT22;5193;51.032;6.356;2023-01-23T18:00:37;2.60;99.90
10296;DHT22;5193;51.032;6.356;2023-01-23T18:03:07;2.60;99.90
10296;DHT22;5193;51.032;6.356;2023-01-23T18:05:34;2.60;99.90
10296;DHT22;5193;51.032;6.356;2023-01-23T18:08:03;2.60;99.90
10296;DHT22;5193;51.032;6.356;2023-01-23T18:10:29;2.60;99.90
10296;DHT22;5193;51.032;6.356;2023-01-23T18:18:35;2.50;99.90